aviador You're here:

LFKB Decoded Metar

BASTIA in CORSE ISL.
Report Time2017-11-25 09:00:00
UTC Time2017-11-25 09:32:38
Flight Rules vfr VFR
WindVRB at 03 kt
Visibility9999 m
Phenomena:N/A
Clouds:Scattered 083 Hf
Scattered 150 Hf
Broken 230 Hf
Expected CloudBase > 800 ft AGL from Temp-Dew spread
Ceiling23,000 ft
Temp12°C (ISA -3)
Dew Point10°C (88% RH)
AAT11.0°C
QNH1016 hPa
Density Alt-246 ft
Elevation39 ft
Report Wrong Elevation
Raw Report
LFKB 250900Z VRB03KT 9999 SCT083 SCT150 BKN230 12/10 Q1016
NOSIG=

Extra information for LFKB:More info

Metar Taf Metar & Taf Last 4 Metars F.Rules Stats Wind Profile Meteogram Temp Stats Airport Information Weather charts Add Link Nearby VenuesMetar ALERT Operation Metar Decoded Social comments